sensor_id;sensor_type;location;lat;lon;timestamp;P1;durP1;ratioP1;P2;durP2;ratioP2
3066;SDS011;1544;48.834;9.194;2023-05-07T00:00:54;4.03;;;3.73;;
3066;SDS011;1544;48.834;9.194;2023-05-07T00:03:30;4.17;;;3.87;;
3066;SDS011;1544;48.834;9.194;2023-05-07T00:06:07;4.53;;;4.20;;
3066;SDS011;1544;48.834;9.194;2023-05-07T00:08:43;4.20;;;3.90;;
3066;SDS011;1544;48.834;9.194;2023-05-07T00:11:19;4.67;;;4.27;;
3066;SDS011;1544;48.834;9.194;2023-05-07T00:13:56;4.50;;;4.20;;
3066;SDS011;1544;48.834;9.194;2023-05-07T00:16:31;5.20;;;4.80;;
3066;SDS011;1544;48.834;9.194;2023-05-07T00:19:07;4.50;;;4.20;;
3066;SDS011;1544;48.834;9.194;2023-05-07T00:21:43;4.77;;;4.40;;
3066;SDS011;1544;48.834;9.194;2023-05-07T00:24:19;4.60;;;4.20;;
3066;SDS011;1544;48.834;9.194;2023-05-07T00:26:55;4.77;;;4.20;;
3066;SDS011;1544;48.834;9.194;2023-05-07T00:29:33;4.27;;;4.00;;
3066;SDS011;1544;48.834;9.194;2023-05-07T00:32:09;4.40;;;3.90;;
3066;SDS011;1544;48.834;9.194;2023-05-07T00:34:45;3.87;;;3.47;;
3066;SDS011;1544;48.834;9.194;2023-05-07T00:37:21;4.17;;;3.87;;
3066;SDS011;1544;48.834;9.194;2023-05-07T00:39:57;4.63;;;4.23;;
3066;SDS011;1544;48.834;9.194;2023-05-07T00:42:33;4.53;;;4.20;;
3066;SDS011;1544;48.834;9.194;2023-05-07T00:45:09;4.03;;;3.73;;
3066;SDS011;1544;48.834;9.194;2023-05-07T00:47:45;5.07;;;4.70;;
3066;SDS011;1544;48.834;9.194;2023-05-07T00:50:21;4.30;;;4.00;;
3066;SDS011;1544;48.834;9.194;2023-05-07T00:52:58;4.37;;;3.97;;
3066;SDS011;1544;48.834;9.194;2023-05-07T00:55:35;3.77;;;3.50;;
3066;SDS011;1544;48.834;9.194;2023-05-07T00:58:12;4.00;;;3.70;;
3066;SDS011;1544;48.834;9.194;2023-05-07T01:00:47;4.00;;;3.80;;
3066;SDS011;1544;48.834;9.194;2023-05-07T01:03:23;4.90;;;4.50;;
3066;SDS011;1544;48.834;9.194;2023-05-07T01:06:00;4.60;;;4.30;;
3066;SDS011;1544;48.834;9.194;2023-05-07T01:08:38;4.20;;;3.80;;
3066;SDS011;1544;48.834;9.194;2023-05-07T01:11:16;4.90;;;4.50;;
3066;SDS011;1544;48.834;9.194;2023-05-07T01:13:54;4.03;;;3.73;;
3066;SDS011;1544;48.834;9.194;2023-05-07T01:16:31;4.57;;;4.20;;
3066;SDS011;1544;48.834;9.194;2023-05-07T01:19:08;4.20;;;3.90;;
3066;SDS011;1544;48.834;9.194;2023-05-07T01:21:48;6.53;;;3.40;;
3066;SDS011;1544;48.834;9.194;2023-05-07T01:24:29;3.83;;;3.53;;
3066;SDS011;1544;48.834;9.194;2023-05-07T01:27:07;3.90;;;3.60;;
3066;SDS011;1544;48.834;9.194;2023-05-07T01:29:44;4.20;;;3.93;;
3066;SDS011;1544;48.834;9.194;2023-05-07T01:32:27;3.70;;;3.50;;
3066;SDS011;1544;48.834;9.194;2023-05-07T01:35:20;5.97;;;4.17;;
3066;SDS011;1544;48.834;9.194;2023-05-07T01:38:00;4.10;;;3.77;;
3066;SDS011;1544;48.834;9.194;2023-05-07T01:40:39;5.10;;;4.70;;
3066;SDS011;1544;48.834;9.194;2023-05-07T01:43:15;5.67;;;3.80;;
3066;SDS011;1544;48.834;9.194;2023-05-07T01:45:52;4.50;;;4.20;;
3066;SDS011;1544;48.834;9.194;2023-05-07T01:48:28;3.30;;;3.10;;
3066;SDS011;1544;48.834;9.194;2023-05-07T01:51:04;3.57;;;3.37;;
3066;SDS011;1544;48.834;9.194;2023-05-07T01:53:41;4.20;;;3.80;;
3066;SDS011;1544;48.834;9.194;2023-05-07T01:56:19;3.97;;;3.67;;
3066;SDS011;1544;48.834;9.194;2023-05-07T01:58:55;4.50;;;4.10;;
3066;SDS011;1544;48.834;9.194;2023-05-07T02:01:31;4.50;;;4.20;;
3066;SDS011;1544;48.834;9.194;2023-05-07T02:04:08;4.23;;;3.90;;
3066;SDS011;1544;48.834;9.194;2023-05-07T02:06:44;4.43;;;4.07;;
3066;SDS011;1544;48.834;9.194;2023-05-07T02:09:21;4.20;;;3.90;;
3066;SDS011;1544;48.834;9.194;2023-05-07T02:11:59;4.00;;;3.80;;
3066;SDS011;1544;48.834;9.194;2023-05-07T02:14:35;3.97;;;3.73;;
3066;SDS011;1544;48.834;9.194;2023-05-07T02:17:11;4.27;;;3.93;;
3066;SDS011;1544;48.834;9.194;2023-05-07T02:19:46;3.97;;;3.57;;
3066;SDS011;1544;48.834;9.194;2023-05-07T02:22:22;4.67;;;4.27;;
3066;SDS011;1544;48.834;9.194;2023-05-07T02:24:59;4.40;;;4.10;;
3066;SDS011;1544;48.834;9.194;2023-05-07T02:27:35;4.00;;;3.80;;
3066;SDS011;1544;48.834;9.194;2023-05-07T02:30:12;3.97;;;3.67;;
3066;SDS011;1544;48.834;9.194;2023-05-07T02:32:49;3.63;;;3.33;;
3066;SDS011;1544;48.834;9.194;2023-05-07T02:35:25;3.43;;;3.23;;
3066;SDS011;1544;48.834;9.194;2023-05-07T02:38:02;3.83;;;3.53;;
3066;SDS011;1544;48.834;9.194;2023-05-07T02:40:38;3.57;;;3.23;;
3066;SDS011;1544;48.834;9.194;2023-05-07T02:43:15;4.00;;;3.80;;
3066;SDS011;1544;48.834;9.194;2023-05-07T02:46:01;4.00;;;3.70;;
3066;SDS011;1544;48.834;9.194;2023-05-07T02:48:45;4.30;;;4.00;;
3066;SDS011;1544;48.834;9.194;2023-05-07T02:51:22;4.30;;;4.00;;
3066;SDS011;1544;48.834;9.194;2023-05-07T02:54:02;4.10;;;3.70;;
3066;SDS011;1544;48.834;9.194;2023-05-07T02:56:39;3.43;;;3.20;;
3066;SDS011;1544;48.834;9.194;2023-05-07T02:59:15;3.80;;;3.50;;
3066;SDS011;1544;48.834;9.194;2023-05-07T03:01:51;4.33;;;4.03;;
3066;SDS011;1544;48.834;9.194;2023-05-07T03:04:27;3.33;;;3.13;;
3066;SDS011;1544;48.834;9.194;2023-05-07T03:07:03;4.27;;;3.97;;
3066;SDS011;1544;48.834;9.194;2023-05-07T03:09:39;4.87;;;3.60;;
3066;SDS011;1544;48.834;9.194;2023-05-07T03:12:15;4.10;;;3.80;;
3066;SDS011;1544;48.834;9.194;2023-05-07T03:14:51;3.70;;;3.40;;
3066;SDS011;1544;48.834;9.194;2023-05-07T03:17:26;3.60;;;3.30;;
3066;SDS011;1544;48.834;9.194;2023-05-07T03:20:02;4.27;;;3.97;;
3066;SDS011;1544;48.834;9.194;2023-05-07T03:22:40;3.70;;;3.40;;
3066;SDS011;1544;48.834;9.194;2023-05-07T03:25:16;3.93;;;3.50;;
3066;SDS011;1544;48.834;9.194;2023-05-07T03:27:52;4.20;;;3.80;;
3066;SDS011;1544;48.834;9.194;2023-05-07T03:30:31;3.77;;;3.47;;
3066;SDS011;1544;48.834;9.194;2023-05-07T03:33:07;3.47;;;3.17;;
3066;SDS011;1544;48.834;9.194;2023-05-07T03:35:44;3.70;;;3.47;;
3066;SDS011;1544;48.834;9.194;2023-05-07T03:38:25;4.60;;;4.20;;
3066;SDS011;1544;48.834;9.194;2023-05-07T03:41:02;3.53;;;3.10;;
3066;SDS011;1544;48.834;9.194;2023-05-07T03:43:38;4.70;;;4.40;;
3066;SDS011;1544;48.834;9.194;2023-05-07T03:46:17;4.00;;;3.70;;
3066;SDS011;1544;48.834;9.194;2023-05-07T03:48:53;3.77;;;3.40;;
3066;SDS011;1544;48.834;9.194;2023-05-07T03:51:30;3.50;;;3.20;;
3066;SDS011;1544;48.834;9.194;2023-05-07T03:54:06;3.70;;;3.40;;
3066;SDS011;1544;48.834;9.194;2023-05-07T03:56:42;4.03;;;3.73;;
3066;SDS011;1544;48.834;9.194;2023-05-07T03:59:18;4.57;;;4.27;;
3066;SDS011;1544;48.834;9.194;2023-05-07T04:01:55;4.33;;;4.03;;
3066;SDS011;1544;48.834;9.194;2023-05-07T04:04:33;4.20;;;3.90;;
3066;SDS011;1544;48.834;9.194;2023-05-07T04:07:09;5.37;;;3.70;;
3066;SDS011;1544;48.834;9.194;2023-05-07T04:09:49;3.40;;;3.20;;
3066;SDS011;1544;48.834;9.194;2023-05-07T04:12:25;4.10;;;3.80;;
3066;SDS011;1544;48.834;9.194;2023-05-07T04:15:01;4.13;;;3.73;;
3066;SDS011;1544;48.834;9.194;2023-05-07T04:17:37;3.87;;;3.57;;
3066;SDS011;1544;48.834;9.194;2023-05-07T04:20:15;3.20;;;3.00;;
3066;SDS011;1544;48.834;9.194;2023-05-07T04:22:56;3.60;;;3.30;;
3066;SDS011;1544;48.834;9.194;2023-05-07T04:25:32;3.30;;;3.10;;
3066;SDS011;1544;48.834;9.194;2023-05-07T04:28:16;4.17;;;3.97;;
3066;SDS011;1544;48.834;9.194;2023-05-07T04:30:52;5.57;;;5.13;;
3066;SDS011;1544;48.834;9.194;2023-05-07T04:33:29;4.07;;;3.77;;
3066;SDS011;1544;48.834;9.194;2023-05-07T04:36:06;4.10;;;3.80;;
3066;SDS011;1544;48.834;9.194;2023-05-07T04:38:49;4.87;;;4.47;;
3066;SDS011;1544;48.834;9.194;2023-05-07T04:41:26;4.60;;;4.20;;
3066;SDS011;1544;48.834;9.194;2023-05-07T04:44:03;4.47;;;4.07;;
3066;SDS011;1544;48.834;9.194;2023-05-07T04:46:40;4.40;;;4.10;;
3066;SDS011;1544;48.834;9.194;2023-05-07T04:49:16;4.80;;;4.40;;
3066;SDS011;1544;48.834;9.194;2023-05-07T04:51:52;4.90;;;4.50;;
3066;SDS011;1544;48.834;9.194;2023-05-07T04:54:30;5.40;;;4.90;;
3066;SDS011;1544;48.834;9.194;2023-05-07T04:57:06;5.33;;;4.83;;
3066;SDS011;1544;48.834;9.194;2023-05-07T04:59:43;5.83;;;5.43;;
3066;SDS011;1544;48.834;9.194;2023-05-07T05:02:19;4.93;;;4.57;;
3066;SDS011;1544;48.834;9.194;2023-05-07T05:04:55;5.10;;;4.60;;
3066;SDS011;1544;48.834;9.194;2023-05-07T05:07:31;4.33;;;4.03;;
3066;SDS011;1544;48.834;9.194;2023-05-07T05:10:08;5.17;;;4.87;;
3066;SDS011;1544;48.834;9.194;2023-05-07T05:12:47;5.33;;;4.93;;
3066;SDS011;1544;48.834;9.194;2023-05-07T05:15:23;4.90;;;4.50;;
3066;SDS011;1544;48.834;9.194;2023-05-07T05:17:59;4.70;;;4.40;;
3066;SDS011;1544;48.834;9.194;2023-05-07T05:20:36;4.90;;;4.50;;
3066;SDS011;1544;48.834;9.194;2023-05-07T05:23:13;3.63;;;3.43;;
3066;SDS011;1544;48.834;9.194;2023-05-07T05:26:02;3.93;;;3.63;;
3066;SDS011;1544;48.834;9.194;2023-05-07T05:28:44;4.07;;;3.77;;
3066;SDS011;1544;48.834;9.194;2023-05-07T05:31:20;4.63;;;4.37;;
3066;SDS011;1544;48.834;9.194;2023-05-07T05:33:58;4.97;;;4.47;;
3066;SDS011;1544;48.834;9.194;2023-05-07T05:36:33;3.97;;;3.70;;
3066;SDS011;1544;48.834;9.194;2023-05-07T05:39:10;4.97;;;4.47;;
3066;SDS011;1544;48.834;9.194;2023-05-07T05:41:47;3.80;;;3.50;;
3066;SDS011;1544;48.834;9.194;2023-05-07T05:44:23;4.40;;;4.10;;
3066;SDS011;1544;48.834;9.194;2023-05-07T05:46:59;5.27;;;4.87;;
3066;SDS011;1544;48.834;9.194;2023-05-07T05:49:36;5.37;;;5.00;;
3066;SDS011;1544;48.834;9.194;2023-05-07T05:52:17;5.00;;;4.60;;
3066;SDS011;1544;48.834;9.194;2023-05-07T05:55:00;4.40;;;4.10;;
3066;SDS011;1544;48.834;9.194;2023-05-07T05:57:36;5.70;;;5.23;;
3066;SDS011;1544;48.834;9.194;2023-05-07T06:00:12;5.20;;;4.80;;
3066;SDS011;1544;48.834;9.194;2023-05-07T06:02:55;6.07;;;5.67;;
3066;SDS011;1544;48.834;9.194;2023-05-07T06:05:32;4.67;;;4.37;;
3066;SDS011;1544;48.834;9.194;2023-05-07T06:08:08;4.87;;;4.50;;
3066;SDS011;1544;48.834;9.194;2023-05-07T06:10:45;3.77;;;3.43;;
3066;SDS011;1544;48.834;9.194;2023-05-07T06:13:21;4.63;;;4.33;;
3066;SDS011;1544;48.834;9.194;2023-05-07T06:15:58;4.43;;;4.03;;
3066;SDS011;1544;48.834;9.194;2023-05-07T06:18:34;4.47;;;4.20;;
3066;SDS011;1544;48.834;9.194;2023-05-07T06:21:14;4.50;;;4.20;;
3066;SDS011;1544;48.834;9.194;2023-05-07T06:23:52;4.03;;;3.73;;
3066;SDS011;1544;48.834;9.194;2023-05-07T06:26:30;4.73;;;4.33;;
3066;SDS011;1544;48.834;9.194;2023-05-07T06:29:06;3.50;;;3.30;;
3066;SDS011;1544;48.834;9.194;2023-05-07T06:31:42;3.90;;;3.70;;
3066;SDS011;1544;48.834;9.194;2023-05-07T06:34:19;3.50;;;3.30;;
3066;SDS011;1544;48.834;9.194;2023-05-07T06:36:55;4.77;;;4.37;;
3066;SDS011;1544;48.834;9.194;2023-05-07T06:39:45;3.60;;;3.40;;
3066;SDS011;1544;48.834;9.194;2023-05-07T06:42:21;3.13;;;2.93;;
3066;SDS011;1544;48.834;9.194;2023-05-07T06:44:58;2.33;;;2.23;;
3066;SDS011;1544;48.834;9.194;2023-05-07T06:47:36;2.50;;;2.33;;
3066;SDS011;1544;48.834;9.194;2023-05-07T06:50:13;2.60;;;2.50;;
3066;SDS011;1544;48.834;9.194;2023-05-07T06:52:52;2.07;;;1.97;;
3066;SDS011;1544;48.834;9.194;2023-05-07T06:55:28;2.43;;;2.33;;
3066;SDS011;1544;48.834;9.194;2023-05-07T06:58:04;2.57;;;2.47;;
3066;SDS011;1544;48.834;9.194;2023-05-07T07:00:45;2.90;;;2.70;;
3066;SDS011;1544;48.834;9.194;2023-05-07T07:03:27;2.00;;;1.90;;
3066;SDS011;1544;48.834;9.194;2023-05-07T07:06:13;3.37;;;3.17;;
3066;SDS011;1544;48.834;9.194;2023-05-07T07:08:50;2.63;;;2.43;;
3066;SDS011;1544;48.834;9.194;2023-05-07T07:11:27;2.80;;;2.60;;
3066;SDS011;1544;48.834;9.194;2023-05-07T07:14:04;3.63;;;3.30;;
3066;SDS011;1544;48.834;9.194;2023-05-07T07:16:45;2.93;;;2.73;;
3066;SDS011;1544;48.834;9.194;2023-05-07T07:19:23;2.90;;;2.70;;
3066;SDS011;1544;48.834;9.194;2023-05-07T07:22:02;2.57;;;2.47;;
3066;SDS011;1544;48.834;9.194;2023-05-07T07:24:38;2.87;;;2.67;;
3066;SDS011;1544;48.834;9.194;2023-05-07T07:27:17;3.00;;;2.70;;
3066;SDS011;1544;48.834;9.194;2023-05-07T07:29:53;3.03;;;2.83;;
3066;SDS011;1544;48.834;9.194;2023-05-07T07:32:30;3.27;;;3.07;;
3066;SDS011;1544;48.834;9.194;2023-05-07T07:35:08;2.20;;;2.10;;
3066;SDS011;1544;48.834;9.194;2023-05-07T07:37:56;3.33;;;3.03;;
3066;SDS011;1544;48.834;9.194;2023-05-07T07:40:38;3.00;;;2.80;;
3066;SDS011;1544;48.834;9.194;2023-05-07T07:43:19;2.80;;;2.70;;
3066;SDS011;1544;48.834;9.194;2023-05-07T07:45:55;2.27;;;2.10;;
3066;SDS011;1544;48.834;9.194;2023-05-07T07:48:32;2.70;;;2.47;;
3066;SDS011;1544;48.834;9.194;2023-05-07T07:51:12;3.10;;;2.80;;
3066;SDS011;1544;48.834;9.194;2023-05-07T07:53:48;2.57;;;2.40;;
3066;SDS011;1544;48.834;9.194;2023-05-07T07:56:26;2.50;;;2.30;;
3066;SDS011;1544;48.834;9.194;2023-05-07T07:59:02;2.67;;;2.47;;
3066;SDS011;1544;48.834;9.194;2023-05-07T08:01:39;3.00;;;2.70;;
3066;SDS011;1544;48.834;9.194;2023-05-07T08:04:16;3.10;;;2.63;;
3066;SDS011;1544;48.834;9.194;2023-05-07T08:06:52;3.03;;;2.80;;
3066;SDS011;1544;48.834;9.194;2023-05-07T08:09:29;2.83;;;2.63;;
3066;SDS011;1544;48.834;9.194;2023-05-07T08:12:07;2.57;;;2.40;;
3066;SDS011;1544;48.834;9.194;2023-05-07T08:14:50;2.47;;;2.13;;
3066;SDS011;1544;48.834;9.194;2023-05-07T08:17:27;3.40;;;3.10;;
3066;SDS011;1544;48.834;9.194;2023-05-07T08:20:04;7.40;;;2.57;;
3066;SDS011;1544;48.834;9.194;2023-05-07T08:22:43;5.50;;;2.23;;
3066;SDS011;1544;48.834;9.194;2023-05-07T08:25:19;2.43;;;2.23;;
3066;SDS011;1544;48.834;9.194;2023-05-07T08:27:55;2.50;;;2.30;;
3066;SDS011;1544;48.834;9.194;2023-05-07T08:30:32;2.77;;;2.63;;
3066;SDS011;1544;48.834;9.194;2023-05-07T08:33:08;2.70;;;2.50;;
3066;SDS011;1544;48.834;9.194;2023-05-07T08:35:45;2.83;;;2.60;;
3066;SDS011;1544;48.834;9.194;2023-05-07T08:38:22;2.80;;;2.70;;
3066;SDS011;1544;48.834;9.194;2023-05-07T08:40:58;2.27;;;2.07;;
3066;SDS011;1544;48.834;9.194;2023-05-07T08:43:36;1.80;;;1.70;;
3066;SDS011;1544;48.834;9.194;2023-05-07T08:46:16;2.50;;;2.33;;
3066;SDS011;1544;48.834;9.194;2023-05-07T08:49:00;2.30;;;2.10;;
3066;SDS011;1544;48.834;9.194;2023-05-07T08:51:37;2.83;;;2.60;;
3066;SDS011;1544;48.834;9.194;2023-05-07T08:54:17;2.20;;;2.10;;
3066;SDS011;1544;48.834;9.194;2023-05-07T08:56:55;2.53;;;2.30;;
3066;SDS011;1544;48.834;9.194;2023-05-07T08:59:31;2.10;;;2.00;;
3066;SDS011;1544;48.834;9.194;2023-05-07T09:02:07;2.80;;;2.50;;
3066;SDS011;1544;48.834;9.194;2023-05-07T09:04:46;2.70;;;2.50;;
3066;SDS011;1544;48.834;9.194;2023-05-07T09:07:22;3.90;;;2.70;;
3066;SDS011;1544;48.834;9.194;2023-05-07T09:10:00;2.87;;;2.77;;
3066;SDS011;1544;48.834;9.194;2023-05-07T09:12:40;2.43;;;2.00;;
3066;SDS011;1544;48.834;9.194;2023-05-07T09:15:18;3.43;;;3.23;;
3066;SDS011;1544;48.834;9.194;2023-05-07T09:17:58;2.23;;;2.13;;
3066;SDS011;1544;48.834;9.194;2023-05-07T09:20:38;2.50;;;2.30;;
3066;SDS011;1544;48.834;9.194;2023-05-07T09:23:20;3.60;;;3.40;;
3066;SDS011;1544;48.834;9.194;2023-05-07T09:26:00;2.30;;;2.20;;
3066;SDS011;1544;48.834;9.194;2023-05-07T09:28:41;2.97;;;2.77;;
3066;SDS011;1544;48.834;9.194;2023-05-07T09:31:20;2.73;;;2.63;;
3066;SDS011;1544;48.834;9.194;2023-05-07T09:34:01;2.40;;;2.30;;
3066;SDS011;1544;48.834;9.194;2023-05-07T09:36:40;2.50;;;2.30;;
3066;SDS011;1544;48.834;9.194;2023-05-07T09:39:16;1.67;;;1.57;;
3066;SDS011;1544;48.834;9.194;2023-05-07T09:41:52;2.60;;;2.17;;
3066;SDS011;1544;48.834;9.194;2023-05-07T09:44:45;2.00;;;1.90;;
3066;SDS011;1544;48.834;9.194;2023-05-07T09:47:29;3.10;;;2.03;;
3066;SDS011;1544;48.834;9.194;2023-05-07T09:50:17;2.07;;;1.93;;
3066;SDS011;1544;48.834;9.194;2023-05-07T09:52:55;1.80;;;1.70;;
3066;SDS011;1544;48.834;9.194;2023-05-07T09:55:34;2.10;;;1.90;;
3066;SDS011;1544;48.834;9.194;2023-05-07T09:58:11;1.73;;;1.63;;
3066;SDS011;1544;48.834;9.194;2023-05-07T10:00:48;1.80;;;1.70;;
3066;SDS011;1544;48.834;9.194;2023-05-07T10:03:25;2.03;;;1.83;;
3066;SDS011;1544;48.834;9.194;2023-05-07T10:06:10;1.70;;;1.60;;
3066;SDS011;1544;48.834;9.194;2023-05-07T10:08:48;1.70;;;1.60;;
3066;SDS011;1544;48.834;9.194;2023-05-07T10:11:25;2.10;;;1.60;;
3066;SDS011;1544;48.834;9.194;2023-05-07T10:14:04;1.80;;;1.50;;
3066;SDS011;1544;48.834;9.194;2023-05-07T10:16:45;1.77;;;1.67;;
3066;SDS011;1544;48.834;9.194;2023-05-07T10:19:24;1.60;;;1.50;;
3066;SDS011;1544;48.834;9.194;2023-05-07T10:22:04;1.90;;;1.80;;
3066;SDS011;1544;48.834;9.194;2023-05-07T10:24:47;1.30;;;1.30;;
3066;SDS011;1544;48.834;9.194;2023-05-07T10:27:29;1.80;;;1.70;;
3066;SDS011;1544;48.834;9.194;2023-05-07T10:32:59;1.50;;;1.40;;
3066;SDS011;1544;48.834;9.194;2023-05-07T10:35:43;1.73;;;1.70;;
3066;SDS011;1544;48.834;9.194;2023-05-07T10:38:24;1.93;;;1.77;;
3066;SDS011;1544;48.834;9.194;2023-05-07T10:41:01;1.50;;;1.30;;
3066;SDS011;1544;48.834;9.194;2023-05-07T10:43:43;1.67;;;1.57;;
3066;SDS011;1544;48.834;9.194;2023-05-07T10:46:35;2.00;;;1.90;;
3066;SDS011;1544;48.834;9.194;2023-05-07T10:49:17;1.70;;;1.60;;
3066;SDS011;1544;48.834;9.194;2023-05-07T10:52:12;1.80;;;1.70;;
3066;SDS011;1544;48.834;9.194;2023-05-07T10:58:26;1.53;;;1.43;;
3066;SDS011;1544;48.834;9.194;2023-05-07T11:04:38;1.60;;;1.50;;
3066;SDS011;1544;48.834;9.194;2023-05-07T11:07:25;2.10;;;2.00;;
3066;SDS011;1544;48.834;9.194;2023-05-07T11:10:09;1.67;;;1.57;;
3066;SDS011;1544;48.834;9.194;2023-05-07T11:12:54;1.50;;;1.40;;
3066;SDS011;1544;48.834;9.194;2023-05-07T11:15:45;2.50;;;1.57;;
3066;SDS011;1544;48.834;9.194;2023-05-07T11:18:46;1.90;;;1.80;;
3066;SDS011;1544;48.834;9.194;2023-05-07T11:21:33;2.90;;;1.90;;
3066;SDS011;1544;48.834;9.194;2023-05-07T11:24:40;1.50;;;1.40;;
3066;SDS011;1544;48.834;9.194;2023-05-07T11:27:24;1.77;;;1.63;;
3066;SDS011;1544;48.834;9.194;2023-05-07T11:30:04;1.60;;;1.50;;
3066;SDS011;1544;48.834;9.194;2023-05-07T11:32:41;1.70;;;1.60;;
3066;SDS011;1544;48.834;9.194;2023-05-07T11:35:17;1.67;;;1.57;;
3066;SDS011;1544;48.834;9.194;2023-05-07T11:37:59;2.80;;;1.50;;
3066;SDS011;1544;48.834;9.194;2023-05-07T11:40:48;1.63;;;1.53;;
3066;SDS011;1544;48.834;9.194;2023-05-07T11:43:31;1.80;;;1.70;;
3066;SDS011;1544;48.834;9.194;2023-05-07T11:46:08;1.73;;;1.63;;
3066;SDS011;1544;48.834;9.194;2023-05-07T11:48:46;1.67;;;1.57;;
3066;SDS011;1544;48.834;9.194;2023-05-07T11:51:24;1.90;;;1.80;;
3066;SDS011;1544;48.834;9.194;2023-05-07T11:54:03;2.10;;;2.00;;
3066;SDS011;1544;48.834;9.194;2023-05-07T11:56:39;1.50;;;1.40;;
3066;SDS011;1544;48.834;9.194;2023-05-07T11:59:18;1.73;;;1.63;;
3066;SDS011;1544;48.834;9.194;2023-05-07T12:01:58;2.10;;;2.00;;
3066;SDS011;1544;48.834;9.194;2023-05-07T12:04:38;2.03;;;1.93;;
3066;SDS011;1544;48.834;9.194;2023-05-07T12:07:14;1.70;;;1.60;;
3066;SDS011;1544;48.834;9.194;2023-05-07T12:09:51;1.60;;;1.50;;
3066;SDS011;1544;48.834;9.194;2023-05-07T12:12:27;1.60;;;1.50;;
3066;SDS011;1544;48.834;9.194;2023-05-07T12:15:07;2.03;;;1.80;;
3066;SDS011;1544;48.834;9.194;2023-05-07T12:17:44;1.80;;;1.70;;
3066;SDS011;1544;48.834;9.194;2023-05-07T12:20:21;2.00;;;1.60;;
3066;SDS011;1544;48.834;9.194;2023-05-07T12:22:57;2.13;;;1.77;;
3066;SDS011;1544;48.834;9.194;2023-05-07T12:25:40;1.70;;;1.60;;
3066;SDS011;1544;48.834;9.194;2023-05-07T12:28:22;1.63;;;1.53;;
3066;SDS011;1544;48.834;9.194;2023-05-07T12:30:58;1.90;;;1.70;;
3066;SDS011;1544;48.834;9.194;2023-05-07T12:33:35;1.87;;;1.70;;
3066;SDS011;1544;48.834;9.194;2023-05-07T12:36:12;3.43;;;3.20;;
3066;SDS011;1544;48.834;9.194;2023-05-07T12:38:49;2.40;;;2.30;;
3066;SDS011;1544;48.834;9.194;2023-05-07T12:41:25;2.23;;;2.07;;
3066;SDS011;1544;48.834;9.194;2023-05-07T12:44:04;2.30;;;2.20;;
3066;SDS011;1544;48.834;9.194;2023-05-07T12:46:41;2.30;;;1.80;;
3066;SDS011;1544;48.834;9.194;2023-05-07T12:49:17;2.33;;;2.03;;
3066;SDS011;1544;48.834;9.194;2023-05-07T12:51:53;2.30;;;2.20;;
3066;SDS011;1544;48.834;9.194;2023-05-07T12:54:30;2.23;;;2.07;;
3066;SDS011;1544;48.834;9.194;2023-05-07T12:57:13;2.80;;;2.10;;
3066;SDS011;1544;48.834;9.194;2023-05-07T12:59:49;2.27;;;2.17;;
3066;SDS011;1544;48.834;9.194;2023-05-07T13:02:32;2.43;;;2.30;;
3066;SDS011;1544;48.834;9.194;2023-05-07T13:05:09;3.60;;;2.80;;
3066;SDS011;1544;48.834;9.194;2023-05-07T13:07:55;3.37;;;2.63;;
3066;SDS011;1544;48.834;9.194;2023-05-07T13:10:32;3.20;;;2.50;;
3066;SDS011;1544;48.834;9.194;2023-05-07T13:13:09;1.90;;;1.70;;
3066;SDS011;1544;48.834;9.194;2023-05-07T13:15:45;1.57;;;1.20;;
3066;SDS011;1544;48.834;9.194;2023-05-07T13:18:29;1.00;;;1.00;;
3066;SDS011;1544;48.834;9.194;2023-05-07T13:21:06;0.83;;;0.83;;
3066;SDS011;1544;48.834;9.194;2023-05-07T13:23:42;1.00;;;0.90;;
3066;SDS011;1544;48.834;9.194;2023-05-07T13:26:19;0.90;;;0.90;;
3066;SDS011;1544;48.834;9.194;2023-05-07T13:29:01;1.07;;;0.97;;
3066;SDS011;1544;48.834;9.194;2023-05-07T13:31:37;1.43;;;1.10;;
3066;SDS011;1544;48.834;9.194;2023-05-07T13:34:18;2.27;;;1.10;;
3066;SDS011;1544;48.834;9.194;2023-05-07T13:36:57;1.77;;;1.30;;
3066;SDS011;1544;48.834;9.194;2023-05-07T13:39:33;1.70;;;1.60;;
3066;SDS011;1544;48.834;9.194;2023-05-07T13:42:12;4.60;;;2.50;;
3066;SDS011;1544;48.834;9.194;2023-05-07T13:44:51;2.23;;;1.53;;
3066;SDS011;1544;48.834;9.194;2023-05-07T13:47:27;1.63;;;1.50;;
3066;SDS011;1544;48.834;9.194;2023-05-07T13:50:03;1.30;;;1.20;;
3066;SDS011;1544;48.834;9.194;2023-05-07T13:52:40;1.57;;;1.10;;
3066;SDS011;1544;48.834;9.194;2023-05-07T13:55:21;1.07;;;0.97;;
3066;SDS011;1544;48.834;9.194;2023-05-07T13:58:00;0.83;;;0.80;;
3066;SDS011;1544;48.834;9.194;2023-05-07T14:00:41;1.00;;;0.77;;
3066;SDS011;1544;48.834;9.194;2023-05-07T14:03:17;0.90;;;0.73;;
3066;SDS011;1544;48.834;9.194;2023-05-07T14:05:55;1.60;;;0.80;;
3066;SDS011;1544;48.834;9.194;2023-05-07T14:08:33;1.43;;;0.70;;
3066;SDS011;1544;48.834;9.194;2023-05-07T14:11:08;1.03;;;0.87;;
3066;SDS011;1544;48.834;9.194;2023-05-07T14:13:45;1.10;;;0.80;;
3066;SDS011;1544;48.834;9.194;2023-05-07T14:16:21;1.00;;;1.00;;
3066;SDS011;1544;48.834;9.194;2023-05-07T14:18:57;3.17;;;0.90;;
3066;SDS011;1544;48.834;9.194;2023-05-07T14:21:33;1.10;;;1.00;;
3066;SDS011;1544;48.834;9.194;2023-05-07T14:24:10;1.40;;;0.90;;
3066;SDS011;1544;48.834;9.194;2023-05-07T14:26:46;1.10;;;1.00;;
3066;SDS011;1544;48.834;9.194;2023-05-07T14:29:22;1.10;;;1.10;;
3066;SDS011;1544;48.834;9.194;2023-05-07T14:31:58;1.87;;;1.43;;
3066;SDS011;1544;48.834;9.194;2023-05-07T14:34:35;1.37;;;1.30;;
3066;SDS011;1544;48.834;9.194;2023-05-07T14:37:11;2.20;;;1.43;;
3066;SDS011;1544;48.834;9.194;2023-05-07T14:39:48;2.13;;;1.93;;
3066;SDS011;1544;48.834;9.194;2023-05-07T14:42:25;3.03;;;1.43;;
3066;SDS011;1544;48.834;9.194;2023-05-07T14:45:01;1.83;;;1.63;;
3066;SDS011;1544;48.834;9.194;2023-05-07T14:47:37;2.40;;;1.80;;
3066;SDS011;1544;48.834;9.194;2023-05-07T14:50:13;2.00;;;1.90;;
3066;SDS011;1544;48.834;9.194;2023-05-07T14:52:49;1.80;;;1.70;;
3066;SDS011;1544;48.834;9.194;2023-05-07T14:55:25;2.37;;;2.20;;
3066;SDS011;1544;48.834;9.194;2023-05-07T14:58:01;2.20;;;2.00;;
3066;SDS011;1544;48.834;9.194;2023-05-07T15:00:37;1.80;;;1.70;;
3066;SDS011;1544;48.834;9.194;2023-05-07T15:03:13;2.27;;;2.10;;
3066;SDS011;1544;48.834;9.194;2023-05-07T15:05:51;3.20;;;2.40;;
3066;SDS011;1544;48.834;9.194;2023-05-07T15:08:28;2.10;;;2.00;;
3066;SDS011;1544;48.834;9.194;2023-05-07T15:11:07;3.03;;;2.73;;
3066;SDS011;1544;48.834;9.194;2023-05-07T15:13:43;2.50;;;2.23;;
3066;SDS011;1544;48.834;9.194;2023-05-07T15:16:19;2.27;;;2.10;;
3066;SDS011;1544;48.834;9.194;2023-05-07T15:18:56;2.40;;;2.20;;
3066;SDS011;1544;48.834;9.194;2023-05-07T15:21:32;1.97;;;1.83;;
3066;SDS011;1544;48.834;9.194;2023-05-07T15:24:09;2.73;;;2.30;;
3066;SDS011;1544;48.834;9.194;2023-05-07T15:26:45;2.20;;;2.00;;
3066;SDS011;1544;48.834;9.194;2023-05-07T15:29:21;1.73;;;1.63;;
3066;SDS011;1544;48.834;9.194;2023-05-07T15:31:57;1.90;;;1.80;;
3066;SDS011;1544;48.834;9.194;2023-05-07T15:34:33;1.73;;;1.63;;
3066;SDS011;1544;48.834;9.194;2023-05-07T15:37:09;1.70;;;1.60;;
3066;SDS011;1544;48.834;9.194;2023-05-07T15:39:45;1.90;;;1.70;;
3066;SDS011;1544;48.834;9.194;2023-05-07T15:42:22;2.00;;;1.90;;
3066;SDS011;1544;48.834;9.194;2023-05-07T15:44:58;2.30;;;2.10;;
3066;SDS011;1544;48.834;9.194;2023-05-07T15:47:35;3.47;;;3.17;;
3066;SDS011;1544;48.834;9.194;2023-05-07T15:50:11;4.13;;;3.83;;
3066;SDS011;1544;48.834;9.194;2023-05-07T15:52:49;3.27;;;3.10;;
3066;SDS011;1544;48.834;9.194;2023-05-07T15:55:25;3.90;;;3.60;;
3066;SDS011;1544;48.834;9.194;2023-05-07T15:58:02;3.97;;;3.60;;
3066;SDS011;1544;48.834;9.194;2023-05-07T16:00:40;3.87;;;3.57;;
3066;SDS011;1544;48.834;9.194;2023-05-07T16:03:17;3.63;;;3.40;;
3066;SDS011;1544;48.834;9.194;2023-05-07T16:05:53;2.67;;;2.47;;
3066;SDS011;1544;48.834;9.194;2023-05-07T16:08:35;3.23;;;3.03;;
3066;SDS011;1544;48.834;9.194;2023-05-07T16:11:11;3.33;;;3.13;;
3066;SDS011;1544;48.834;9.194;2023-05-07T16:13:47;2.83;;;2.63;;
3066;SDS011;1544;48.834;9.194;2023-05-07T16:16:23;2.43;;;2.33;;
3066;SDS011;1544;48.834;9.194;2023-05-07T16:19:00;2.60;;;2.40;;
3066;SDS011;1544;48.834;9.194;2023-05-07T16:21:36;2.60;;;2.40;;
3066;SDS011;1544;48.834;9.194;2023-05-07T16:24:13;2.30;;;2.20;;
3066;SDS011;1544;48.834;9.194;2023-05-07T16:26:49;2.77;;;2.57;;
3066;SDS011;1544;48.834;9.194;2023-05-07T16:29:25;2.43;;;2.20;;
3066;SDS011;1544;48.834;9.194;2023-05-07T16:32:01;3.10;;;2.90;;